createdAt,value
2023-02-11T00:01:21.839Z,32.67
2023-02-11T00:03:51.457Z,32.65
2023-02-11T00:06:19.697Z,33.33
2023-02-11T00:08:47.824Z,29.10
2023-02-11T00:11:17.446Z,29.92
2023-02-11T00:13:46.220Z,36.58
2023-02-11T00:16:16.293Z,30.33
2023-02-11T00:18:44.950Z,33.08
2023-02-11T00:21:17.551Z,38.17
2023-02-11T00:23:46.231Z,32.95
2023-02-11T00:26:15.199Z,29.17
2023-02-11T00:28:43.300Z,30.20
2023-02-11T00:31:11.768Z,30.23
2023-02-11T00:33:40.019Z,27.75
2023-02-11T00:36:10.547Z,31.73
2023-02-11T00:38:40.067Z,32.95
2023-02-11T00:41:08.044Z,24.83
2023-02-11T00:43:37.096Z,28.35
2023-02-11T00:46:05.621Z,30.20
2023-02-11T00:48:33.684Z,28.27
2023-02-11T00:51:01.648Z,28.02
2023-02-11T00:53:29.633Z,27.48
2023-02-11T00:55:59.042Z,26.90
2023-02-11T00:58:27.140Z,29.73
2023-02-11T01:00:55.368Z,24.30
2023-02-11T01:03:23.300Z,26.80
2023-02-11T01:05:51.752Z,28.75
2023-02-11T01:08:19.945Z,26.15
2023-02-11T01:10:55.607Z,29.90
2023-02-11T01:13:26.071Z,26.65
2023-02-11T01:15:54.556Z,23.92
2023-02-11T01:18:22.712Z,30.42
2023-02-11T01:20:51.857Z,24.90
2023-02-11T01:23:20.555Z,27.45
2023-02-11T01:25:49.212Z,24.65
2023-02-11T01:28:18.680Z,30.90
2023-02-11T01:30:48.536Z,24.65
2023-02-11T01:33:16.939Z,25.50
2023-02-11T01:35:45.608Z,23.80
2023-02-11T01:38:17.079Z,20.92
2023-02-11T01:40:49.049Z,22.93
2023-02-11T01:43:17.435Z,25.00
2023-02-11T01:46:03.655Z,25.30
2023-02-11T01:48:35.627Z,21.00
2023-02-11T01:51:07.779Z,20.98
2023-02-11T01:53:55.820Z,22.40
2023-02-11T01:56:43.429Z,21.90
2023-02-11T01:59:16.060Z,23.80
2023-02-11T02:01:50.135Z,23.05
2023-02-11T02:04:20.226Z,24.90
2023-02-11T02:06:53.645Z,22.25
2023-02-11T02:09:24.849Z,24.42
2023-02-11T02:11:52.980Z,21.85
2023-02-11T02:14:21.393Z,20.80
2023-02-11T02:16:50.839Z,22.08
2023-02-11T02:19:58.839Z,22.67
2023-02-11T02:22:55.360Z,21.13
2023-02-11T02:26:05.405Z,21.10
2023-02-11T02:29:00.901Z,22.10
2023-02-11T02:31:47.222Z,22.17
2023-02-11T02:34:23.471Z,19.25
2023-02-11T02:37:00.237Z,21.15
2023-02-11T02:39:31.020Z,22.73
2023-02-11T02:41:59.819Z,19.65
2023-02-11T02:44:27.965Z,17.73
2023-02-11T02:46:56.095Z,19.95
2023-02-11T02:49:25.684Z,17.23
2023-02-11T02:52:07.983Z,18.05
2023-02-11T02:55:05.158Z,20.27
2023-02-11T02:57:39.731Z,17.88
2023-02-11T03:00:20.623Z,19.60
2023-02-11T03:02:59.798Z,19.13
2023-02-11T03:05:35.785Z,19.35
2023-02-11T03:08:09.202Z,14.70
2023-02-11T03:10:41.312Z,16.40
2023-02-11T03:13:09.659Z,19.55
2023-02-11T03:15:43.187Z,21.42
2023-02-11T03:18:14.874Z,18.85
2023-02-11T03:20:49.128Z,15.30
2023-02-11T03:23:22.088Z,18.10
2023-02-11T03:25:56.753Z,15.75
2023-02-11T03:28:33.585Z,15.38
2023-02-11T03:31:12.268Z,19.40
2023-02-11T03:33:45.660Z,20.15
2023-02-11T03:36:20.833Z,14.18
2023-02-11T03:38:51.636Z,16.80
2023-02-11T03:41:23.024Z,16.52
2023-02-11T03:43:53.994Z,17.33
2023-02-11T03:46:28.595Z,14.88
2023-02-11T03:49:00.290Z,15.05
2023-02-11T03:51:31.974Z,14.57
2023-02-11T03:54:03.113Z,13.60
2023-02-11T03:56:36.406Z,14.18
2023-02-11T03:59:04.636Z,13.80
2023-02-11T04:01:32.710Z,16.50
2023-02-11T04:04:00.756Z,15.35
2023-02-11T04:06:30.069Z,17.73
2023-02-11T04:08:58.072Z,13.15
2023-02-11T04:11:26.069Z,15.43
2023-02-11T04:13:54.001Z,13.65
2023-02-11T04:16:22.335Z,11.80
2023-02-11T04:18:50.602Z,15.35
2023-02-11T04:21:18.630Z,13.02
2023-02-11T04:23:48.017Z,13.10
2023-02-11T04:26:16.019Z,14.15
2023-02-11T04:28:43.970Z,12.57
2023-02-11T04:31:12.739Z,12.40
2023-02-11T04:33:41.021Z,13.43
2023-02-11T04:36:09.599Z,11.75
2023-02-11T04:38:37.630Z,14.02
2023-02-11T04:41:07.234Z,12.82
2023-02-11T04:43:35.259Z,11.50
2023-02-11T04:46:03.303Z,13.07
2023-02-11T04:48:31.280Z,10.10
2023-02-11T04:50:59.261Z,13.43
2023-02-11T04:53:27.475Z,10.57
2023-02-11T04:55:55.700Z,12.45
2023-02-11T04:58:25.231Z,11.90
2023-02-11T05:00:53.221Z,10.68
2023-02-11T05:03:21.507Z,10.50
2023-02-11T05:05:49.741Z,12.48
2023-02-11T05:08:17.846Z,12.30
2023-02-11T05:10:47.912Z,10.75
2023-02-11T05:13:16.071Z,11.25
2023-02-11T05:15:45.494Z,12.48
2023-02-11T05:18:14.870Z,14.95
2023-02-11T05:20:42.898Z,10.70
2023-02-11T05:23:11.120Z,10.15
2023-02-11T05:25:39.163Z,14.98
2023-02-11T05:28:07.890Z,10.82
2023-02-11T05:30:36.097Z,13.70
2023-02-11T05:33:05.706Z,10.65
2023-02-11T05:35:33.754Z,11.65
2023-02-11T05:38:01.681Z,9.07
2023-02-11T05:40:29.653Z,11.80
2023-02-11T05:42:57.629Z,10.15
2023-02-11T05:45:25.641Z,11.38
2023-02-11T05:47:53.785Z,12.60
2023-02-11T05:50:23.177Z,10.48
2023-02-11T05:52:51.160Z,10.82
2023-02-11T05:55:19.437Z,11.73
2023-02-11T05:57:47.460Z,11.98
2023-02-11T06:00:16.616Z,10.50
2023-02-11T06:02:44.671Z,11.40
2023-02-11T06:05:12.945Z,10.07
2023-02-11T06:07:42.416Z,10.43
2023-02-11T06:10:11.090Z,10.38
2023-02-11T06:12:39.636Z,12.48
2023-02-11T06:15:08.632Z,13.50
2023-02-11T06:17:37.371Z,10.43
2023-02-11T06:20:07.469Z,12.27
2023-02-11T06:22:35.503Z,12.15
2023-02-11T06:25:05.263Z,13.10
2023-02-11T06:27:33.521Z,8.52
2023-02-11T06:30:01.472Z,10.15
2023-02-11T06:32:46.175Z,9.15
2023-02-11T06:35:14.922Z,10.73
2023-02-11T06:37:43.192Z,16.42
2023-02-11T06:40:13.643Z,11.73
2023-02-11T06:42:41.863Z,10.80
2023-02-11T06:45:11.733Z,10.85
2023-02-11T06:47:40.264Z,9.52
2023-02-11T06:50:10.064Z,11.75
2023-02-11T06:52:38.134Z,9.95
2023-02-11T06:55:06.797Z,13.73
2023-02-11T06:57:36.308Z,10.65
2023-02-11T07:00:05.690Z,10.93
2023-02-11T07:02:33.905Z,13.10
2023-02-11T07:05:01.991Z,12.90
2023-02-11T07:07:32.348Z,11.18
2023-02-11T07:10:03.034Z,12.23
2023-02-11T07:12:31.357Z,11.38
2023-02-11T07:15:00.821Z,10.98
2023-02-11T07:17:28.964Z,12.50
2023-02-11T07:19:57.032Z,10.02
2023-02-11T07:22:25.181Z,10.85
2023-02-11T07:24:53.380Z,9.65
2023-02-11T07:27:21.470Z,10.50
2023-02-11T07:29:49.596Z,10.07
2023-02-11T07:32:19.182Z,12.18
2023-02-11T07:34:48.138Z,11.57
2023-02-11T07:37:16.315Z,11.13
2023-02-11T07:39:44.416Z,12.68
2023-02-11T07:42:12.580Z,13.55
2023-02-11T07:44:40.928Z,10.35
2023-02-11T07:47:08.983Z,11.70
2023-02-11T07:49:38.419Z,12.13
2023-02-11T07:52:06.574Z,12.63
2023-02-11T07:54:34.597Z,9.00
2023-02-11T07:57:02.623Z,13.27
2023-02-11T07:59:30.689Z,13.55
2023-02-11T08:01:59.888Z,9.60
2023-02-11T08:04:28.026Z,10.18
2023-02-11T08:06:59.311Z,12.80
2023-02-11T08:09:27.435Z,11.07
2023-02-11T08:11:55.366Z,9.90
2023-02-11T08:14:25.181Z,12.30
2023-02-11T08:16:53.331Z,12.02
2023-02-11T08:19:21.426Z,15.32
2023-02-11T08:21:49.373Z,20.55
2023-02-11T08:24:18.869Z,17.65
2023-02-11T08:26:46.934Z,52.13
2023-02-11T08:29:16.665Z,40.60
2023-02-11T08:31:46.708Z,25.15
2023-02-11T08:34:18.263Z,19.25
2023-02-11T08:36:48.376Z,15.87
2023-02-11T08:39:21.027Z,15.13
2023-02-11T08:41:51.318Z,13.48
2023-02-11T08:44:20.171Z,19.08
2023-02-11T08:46:48.591Z,12.60
2023-02-11T08:49:16.921Z,14.52
2023-02-11T08:51:45.531Z,19.92
2023-02-11T08:54:14.221Z,14.57
2023-02-11T08:56:43.789Z,16.30
2023-02-11T08:59:14.589Z,15.43
2023-02-11T09:01:44.111Z,15.13
2023-02-11T09:04:12.376Z,19.60
2023-02-11T09:06:40.818Z,15.50
2023-02-11T09:09:13.481Z,18.15
2023-02-11T09:14:17.909Z,13.60
2023-02-11T09:16:46.218Z,16.33
2023-02-11T09:19:14.449Z,15.52
2023-02-11T09:21:42.668Z,19.95
2023-02-11T09:24:10.949Z,15.77
2023-02-11T09:26:39.685Z,16.60
2023-02-11T09:29:08.067Z,15.50
2023-02-11T09:31:37.596Z,14.35
2023-02-11T09:34:07.414Z,18.70
2023-02-11T09:36:38.422Z,17.33
2023-02-11T09:39:08.319Z,16.67
2023-02-11T09:42:03.419Z,15.80
2023-02-11T09:44:34.890Z,18.05
2023-02-11T09:47:06.742Z,13.95
2023-02-11T09:49:41.095Z,14.50
2023-02-11T09:52:16.446Z,14.23
2023-02-11T09:54:55.401Z,15.55
2023-02-11T09:57:28.909Z,12.90
2023-02-11T09:59:57.712Z,13.82
2023-02-11T10:02:35.302Z,14.05
2023-02-11T10:05:29.162Z,14.20
2023-02-11T10:08:09.788Z,17.00
2023-02-11T10:10:48.341Z,15.93
2023-02-11T10:13:33.583Z,10.90
2023-02-11T10:16:15.001Z,13.05
2023-02-11T10:19:13.914Z,15.10
2023-02-11T10:21:50.634Z,12.65
2023-02-11T10:24:19.330Z,11.00
2023-02-11T10:26:47.863Z,14.45
2023-02-11T10:29:34.531Z,14.10
2023-02-11T10:32:08.582Z,15.55
2023-02-11T10:34:42.469Z,11.15
2023-02-11T10:37:13.842Z,11.32
2023-02-11T10:39:42.542Z,13.48
2023-02-11T10:42:13.456Z,12.52
2023-02-11T10:44:47.134Z,10.60
2023-02-11T10:47:21.516Z,10.90
2023-02-11T10:49:50.890Z,11.05
2023-02-11T10:52:24.847Z,8.68
2023-02-11T10:55:01.943Z,9.38
2023-02-11T10:57:34.959Z,13.68
2023-02-11T11:00:09.031Z,10.13
2023-02-11T11:02:43.981Z,11.27
2023-02-11T11:05:20.910Z,11.63
2023-02-11T11:07:57.075Z,11.38
2023-02-11T11:10:32.540Z,9.05
2023-02-11T11:13:00.583Z,11.45
2023-02-11T11:15:30.786Z,9.30
2023-02-11T11:18:21.971Z,12.00
2023-02-11T11:21:00.750Z,10.90
2023-02-11T11:23:30.619Z,13.80
2023-02-11T11:26:05.446Z,11.88
2023-02-11T11:28:38.972Z,14.85
2023-02-11T11:31:13.648Z,10.63
2023-02-11T11:33:44.035Z,12.13
2023-02-11T11:36:16.801Z,10.10
2023-02-11T11:38:51.201Z,11.82
2023-02-11T11:41:26.864Z,10.27
2023-02-11T11:43:57.069Z,11.80
2023-02-11T11:46:27.704Z,11.85
2023-02-11T11:49:02.018Z,11.23
2023-02-11T11:51:33.726Z,21.35
2023-02-11T11:54:04.065Z,18.00
2023-02-11T11:56:35.107Z,10.63
2023-02-11T11:59:10.793Z,9.70
2023-02-11T12:01:50.599Z,11.10
2023-02-11T12:04:42.962Z,12.15
2023-02-11T12:07:27.764Z,12.65
2023-02-11T12:10:20.140Z,14.68
2023-02-11T12:13:06.958Z,11.10
2023-02-11T12:15:53.671Z,11.55
2023-02-11T12:18:47.432Z,11.27
2023-02-11T12:21:35.230Z,12.57
2023-02-11T12:24:17.470Z,10.32
2023-02-11T12:26:50.624Z,11.98
2023-02-11T12:29:28.318Z,12.57
2023-02-11T12:32:09.803Z,12.90
2023-02-11T12:35:02.420Z,19.88
2023-02-11T12:37:42.482Z,13.25
2023-02-11T12:40:18.800Z,12.10
2023-02-11T12:43:14.565Z,12.20
2023-02-11T12:45:54.929Z,13.77
2023-02-11T12:48:38.395Z,10.30
2023-02-11T12:51:17.361Z,10.13
2023-02-11T12:54:07.279Z,10.48
2023-02-11T12:56:41.647Z,11.50
2023-02-11T12:59:16.394Z,10.27
2023-02-11T13:01:46.052Z,11.52
2023-02-11T13:04:20.900Z,14.75
2023-02-11T13:06:52.937Z,10.25
2023-02-11T13:09:26.342Z,11.77
2023-02-11T13:11:58.938Z,12.90
2023-02-11T13:16:58.418Z,12.65
2023-02-11T13:19:32.290Z,10.50
2023-02-11T13:22:14.083Z,10.13
2023-02-11T13:24:45.625Z,10.83
2023-02-11T13:27:31.217Z,10.18
2023-02-11T13:30:30.593Z,9.07
2023-02-11T13:33:22.010Z,10.05
2023-02-11T13:36:22.894Z,9.80
2023-02-11T13:38:59.945Z,8.98
2023-02-11T13:41:34.266Z,9.80
2023-02-11T13:44:26.840Z,11.13
2023-02-11T13:47:06.612Z,7.53
2023-02-11T13:49:40.483Z,10.32
2023-02-11T13:52:23.567Z,9.95
2023-02-11T13:54:53.917Z,8.63
2023-02-11T13:57:36.185Z,8.13
2023-02-11T14:00:49.108Z,10.88
2023-02-11T14:03:45.800Z,7.35
2023-02-11T14:06:37.984Z,9.27
2023-02-11T14:09:26.586Z,8.27
2023-02-11T14:12:15.371Z,9.00
2023-02-11T14:15:04.852Z,7.82
2023-02-11T14:17:35.121Z,8.88
2023-02-11T14:20:26.399Z,9.40
2023-02-11T14:22:58.196Z,9.77
2023-02-11T14:25:27.199Z,10.43
2023-02-11T14:28:01.755Z,12.52
2023-02-11T14:30:45.318Z,8.13
2023-02-11T14:33:55.470Z,11.10
2023-02-11T14:36:53.778Z,11.00
2023-02-11T14:39:33.694Z,11.27
2023-02-11T14:42:03.738Z,12.93
2023-02-11T14:44:34.027Z,13.07
2023-02-11T14:47:02.277Z,11.90
2023-02-11T14:49:33.966Z,13.88
2023-02-11T14:52:14.700Z,12.70
2023-02-11T14:54:45.444Z,9.90
2023-02-11T14:57:16.650Z,13.52
2023-02-11T14:59:56.158Z,13.07
2023-02-11T15:02:26.386Z,14.05
2023-02-11T15:04:55.122Z,15.15
2023-02-11T15:07:24.849Z,18.23
2023-02-11T15:09:54.946Z,17.20
2023-02-11T15:12:26.343Z,14.40
2023-02-11T15:14:56.207Z,16.42
2023-02-11T15:17:27.340Z,16.02
2023-02-11T15:19:58.892Z,18.50
2023-02-11T15:22:32.838Z,15.15
2023-02-11T15:25:03.810Z,17.80
2023-02-11T15:27:40.071Z,20.92
2023-02-11T15:30:24.907Z,27.30
2023-02-11T15:32:58.022Z,31.58
2023-02-11T15:35:28.496Z,23.00
2023-02-11T15:37:59.368Z,20.30
2023-02-11T15:40:29.374Z,21.05
2023-02-11T15:42:59.068Z,19.30
2023-02-11T15:45:30.326Z,19.77
2023-02-11T15:48:02.834Z,18.58
2023-02-11T15:53:05.997Z,18.00
2023-02-11T15:55:34.475Z,30.95
2023-02-11T15:58:03.327Z,20.70
2023-02-11T16:00:36.672Z,18.60
2023-02-11T16:03:05.650Z,18.85
2023-02-11T16:05:35.956Z,21.92
2023-02-11T16:08:22.635Z,17.85
2023-02-11T16:10:58.847Z,16.15
2023-02-11T16:13:28.232Z,22.15
2023-02-11T16:15:58.277Z,22.15
2023-02-11T16:18:38.354Z,19.48
2023-02-11T16:21:13.252Z,21.63
2023-02-11T16:23:43.190Z,20.63
2023-02-11T16:26:22.002Z,18.50
2023-02-11T16:28:50.182Z,22.10
2023-02-11T16:31:18.854Z,28.67
2023-02-11T16:33:46.940Z,21.85
2023-02-11T16:36:17.184Z,21.42
2023-02-11T16:38:46.624Z,21.67
2023-02-11T16:41:14.786Z,31.95
2023-02-11T16:43:42.790Z,41.58
2023-02-11T16:46:15.183Z,28.83
2023-02-11T16:48:43.287Z,48.83
2023-02-11T16:51:12.935Z,76.32
2023-02-11T16:53:41.125Z,49.47
2023-02-11T16:56:15.909Z,77.57
2023-02-11T16:58:44.644Z,100.55
2023-02-11T17:01:14.283Z,86.25
2023-02-11T17:03:43.779Z,225.85
2023-02-11T17:06:13.484Z,153.65
2023-02-11T17:08:41.592Z,43.92
2023-02-11T17:11:09.835Z,40.38
2023-02-11T17:13:39.519Z,42.00
2023-02-11T17:16:12.475Z,50.80
2023-02-11T17:18:59.236Z,49.58
2023-02-11T17:21:30.042Z,46.28
2023-02-11T17:23:58.395Z,41.22
2023-02-11T17:26:26.665Z,44.30
2023-02-11T17:28:55.992Z,31.73
2023-02-11T17:31:24.369Z,47.47
2023-02-11T17:33:52.555Z,54.50
2023-02-11T17:36:20.538Z,49.58
2023-02-11T17:38:48.724Z,60.58
2023-02-11T17:41:16.795Z,44.60
2023-02-11T17:43:44.843Z,42.13
2023-02-11T17:46:14.953Z,43.90
2023-02-11T17:48:43.002Z,30.35
2023-02-11T17:51:25.959Z,38.58
2023-02-11T17:53:54.592Z,52.97
2023-02-11T17:56:22.687Z,30.42
2023-02-11T17:58:50.664Z,36.90
2023-02-11T18:01:20.279Z,40.92
2023-02-11T18:03:48.604Z,38.65
2023-02-11T18:06:16.766Z,33.38
2023-02-11T18:08:45.118Z,30.67
2023-02-11T18:11:15.127Z,33.92
2023-02-11T18:13:43.757Z,34.17
2023-02-11T18:16:15.543Z,39.67
2023-02-11T18:18:45.376Z,36.95
2023-02-11T18:21:15.218Z,41.40
2023-02-11T18:23:43.594Z,40.40
2023-02-11T18:26:13.565Z,37.85
2023-02-11T18:28:45.292Z,31.35
2023-02-11T18:31:14.916Z,32.22
2023-02-11T18:33:44.619Z,29.00
2023-02-11T18:36:14.991Z,38.13
2023-02-11T18:38:45.044Z,40.38
2023-02-11T18:41:13.348Z,43.63
2023-02-11T18:43:42.921Z,37.67
2023-02-11T18:46:12.387Z,45.53
2023-02-11T18:48:41.057Z,30.05
2023-02-11T18:51:15.991Z,49.47
2023-02-11T18:53:44.753Z,31.40
2023-02-11T18:56:14.983Z,41.80
2023-02-11T18:58:43.261Z,49.13
2023-02-11T19:01:16.395Z,38.97
2023-02-11T19:03:44.620Z,42.78
2023-02-11T19:06:19.750Z,40.83
2023-02-11T19:08:48.342Z,45.15
2023-02-11T19:11:18.709Z,36.83
2023-02-11T19:13:48.151Z,40.03
2023-02-11T19:16:19.953Z,36.83
2023-02-11T19:18:48.281Z,32.38
2023-02-11T19:21:17.737Z,32.55
2023-02-11T19:23:45.662Z,37.85
2023-02-11T19:26:13.722Z,33.63
2023-02-11T19:28:41.783Z,34.97
2023-02-11T19:31:10.508Z,35.85
2023-02-11T19:33:38.697Z,33.97
2023-02-11T19:36:08.114Z,32.08
2023-02-11T19:38:37.591Z,35.35
2023-02-11T19:41:06.076Z,37.65
2023-02-11T19:43:34.141Z,37.53
2023-02-11T19:46:02.779Z,37.50
2023-02-11T19:48:31.202Z,39.83
2023-02-11T19:50:59.593Z,36.53
2023-02-11T19:53:28.149Z,35.92
2023-02-11T19:56:01.623Z,34.45
2023-02-11T19:58:31.865Z,34.35
2023-02-11T20:01:06.696Z,33.55
2023-02-11T20:03:34.856Z,35.28
2023-02-11T20:06:06.644Z,38.33
2023-02-11T20:08:37.608Z,36.33
2023-02-11T20:11:18.043Z,41.38
2023-02-11T20:13:54.213Z,37.70
2023-02-11T20:16:26.952Z,34.22
2023-02-11T20:19:02.463Z,34.20
2023-02-11T20:21:31.851Z,35.17
2023-02-11T20:24:01.000Z,41.83
2023-02-11T20:26:32.898Z,38.03
2023-02-11T20:29:02.449Z,34.65
2023-02-11T20:31:32.153Z,31.55
2023-02-11T20:34:00.883Z,34.67
2023-02-11T20:36:33.164Z,32.95
2023-02-11T20:39:01.988Z,34.80
2023-02-11T20:41:36.476Z,33.03
2023-02-11T20:44:07.032Z,32.35
2023-02-11T20:46:36.133Z,33.67
2023-02-11T20:49:05.183Z,32.38
2023-02-11T20:51:36.597Z,31.98
2023-02-11T20:54:05.991Z,34.03
2023-02-11T20:56:37.666Z,36.88
2023-02-11T20:59:06.622Z,34.17
2023-02-11T21:01:36.616Z,28.20
2023-02-11T21:04:06.766Z,30.45
2023-02-11T21:06:39.599Z,34.60
2023-02-11T21:09:10.035Z,31.02
2023-02-11T21:11:39.512Z,33.80
2023-02-11T21:14:07.662Z,36.08
2023-02-11T21:16:35.842Z,34.33
2023-02-11T21:19:04.882Z,31.88
2023-02-11T21:21:33.804Z,29.70
2023-02-11T21:24:02.008Z,29.05
2023-02-11T21:26:30.109Z,32.50
2023-02-11T21:28:59.642Z,33.55
2023-02-11T21:31:29.793Z,30.38
2023-02-11T21:33:59.411Z,31.55
2023-02-11T21:36:28.627Z,29.40
2023-02-11T21:38:56.875Z,31.17
2023-02-11T21:41:25.060Z,28.20
2023-02-11T21:43:55.672Z,33.03
2023-02-11T21:46:25.599Z,31.63
2023-02-11T21:49:01.227Z,29.38
2023-02-11T21:51:29.490Z,29.70
2023-02-11T21:53:59.520Z,33.75
2023-02-11T21:56:29.003Z,29.42
2023-02-11T21:58:59.000Z,28.40
2023-02-11T22:01:29.864Z,32.65
2023-02-11T22:03:58.809Z,30.02
2023-02-11T22:06:30.817Z,40.45
2023-02-11T22:08:59.454Z,33.00
2023-02-11T22:11:29.800Z,31.20
2023-02-11T22:13:59.113Z,32.90
2023-02-11T22:16:30.117Z,29.83
2023-02-11T22:18:59.394Z,32.85
2023-02-11T22:21:32.406Z,31.30
2023-02-11T22:24:00.648Z,34.38
2023-02-11T22:26:29.704Z,33.35
2023-02-11T22:29:09.290Z,29.50
2023-02-11T22:31:39.005Z,30.88
2023-02-11T22:34:16.116Z,29.88
2023-02-11T22:36:45.377Z,26.60
2023-02-11T22:39:15.163Z,33.30
2023-02-11T22:41:43.920Z,28.30
2023-02-11T22:44:12.425Z,26.45
2023-02-11T22:46:41.838Z,30.13
2023-02-11T22:49:10.912Z,34.63
2023-02-11T22:51:40.337Z,25.80
2023-02-11T22:54:12.514Z,27.15
2023-02-11T22:56:41.142Z,24.65
2023-02-11T22:59:13.004Z,25.58
2023-02-11T23:01:43.481Z,28.13
2023-02-11T23:04:13.726Z,27.75
2023-02-11T23:06:41.756Z,28.23
2023-02-11T23:09:12.453Z,30.08
2023-02-11T23:11:41.269Z,27.02
2023-02-11T23:14:11.929Z,27.73
2023-02-11T23:16:40.010Z,27.23
2023-02-11T23:19:12.625Z,28.17
2023-02-11T23:21:40.842Z,30.38
2023-02-11T23:24:12.749Z,29.90
2023-02-11T23:26:42.187Z,28.40
2023-02-11T23:29:10.394Z,29.10
2023-02-11T23:31:40.672Z,28.45
2023-02-11T23:34:10.792Z,24.60
2023-02-11T23:36:39.118Z,26.33
2023-02-11T23:39:07.454Z,26.17
2023-02-11T23:41:35.584Z,26.38
2023-02-11T23:44:03.539Z,28.92
2023-02-11T23:46:31.593Z,24.40
2023-02-11T23:48:59.624Z,25.80
2023-02-11T23:51:29.093Z,26.20
2023-02-11T23:53:57.310Z,24.75
2023-02-11T23:56:27.084Z,26.00
2023-02-11T23:58:57.998Z,27.02
